createdAt,value
2018-01-18T00:00:26.151Z,997.80
2018-01-18T00:01:26.127Z,997.74
2018-01-18T00:02:26.095Z,997.88
2018-01-18T00:03:26.063Z,997.92
2018-01-18T00:04:26.022Z,997.86
2018-01-18T00:05:25.985Z,997.90
2018-01-18T00:06:25.962Z,997.85
2018-01-18T00:07:25.922Z,997.96
2018-01-18T00:08:25.897Z,997.83
2018-01-18T00:09:25.855Z,997.69
2018-01-18T00:10:25.823Z,998.04
2018-01-18T00:11:25.792Z,997.85
2018-01-18T00:12:25.759Z,997.87
2018-01-18T00:13:25.736Z,997.75
2018-01-18T00:14:25.694Z,997.82
2018-01-18T00:15:25.662Z,997.83
2018-01-18T00:16:25.631Z,997.82
2018-01-18T00:17:25.602Z,997.84
2018-01-18T00:18:25.576Z,997.77
2018-01-18T00:19:25.544Z,997.62
2018-01-18T00:20:25.504Z,997.81
2018-01-18T00:21:25.471Z,997.81
2018-01-18T00:22:25.438Z,997.77
2018-01-18T00:23:25.400Z,997.80
2018-01-18T00:24:25.630Z,997.84
2018-01-18T00:25:25.343Z,997.92
2018-01-18T00:26:25.311Z,997.72
2018-01-18T00:27:25.277Z,997.79
2018-01-18T00:28:25.241Z,997.88
2018-01-18T00:29:25.208Z,997.79
2018-01-18T00:30:25.170Z,997.81
2018-01-18T00:31:25.137Z,997.89
2018-01-18T00:32:25.113Z,997.87
2018-01-18T00:33:25.072Z,997.90
2018-01-18T00:34:25.047Z,997.90
2018-01-18T00:35:25.016Z,997.91
2018-01-18T00:36:24.993Z,997.91
2018-01-18T00:37:24.948Z,997.96
2018-01-18T00:38:24.915Z,997.83
2018-01-18T00:39:24.879Z,997.79
2018-01-18T00:40:24.889Z,997.72
2018-01-18T00:41:24.813Z,997.77
2018-01-18T00:42:24.793Z,997.81
2018-01-18T00:43:24.748Z,997.60
2018-01-18T00:44:24.713Z,997.71
2018-01-18T00:45:24.681Z,997.74
2018-01-18T00:46:24.649Z,997.66
2018-01-18T00:47:24.623Z,997.75
2018-01-18T00:48:24.603Z,997.67
2018-01-18T00:49:24.562Z,997.62
2018-01-18T00:50:24.527Z,997.60
2018-01-18T00:51:24.487Z,997.69
2018-01-18T00:52:24.456Z,997.60
2018-01-18T00:53:24.429Z,997.45
2018-01-18T00:54:24.395Z,997.53
2018-01-18T00:55:24.357Z,997.56
2018-01-18T00:56:24.326Z,997.57
2018-01-18T00:57:24.301Z,997.52
2018-01-18T00:58:24.258Z,997.40
2018-01-18T00:59:24.533Z,997.56
2018-01-18T01:00:24.195Z,997.41
2018-01-18T01:01:24.165Z,997.43
2018-01-18T01:02:24.128Z,997.43
2018-01-18T01:03:24.096Z,997.54
2018-01-18T01:04:24.069Z,997.48
2018-01-18T01:05:24.031Z,997.47
2018-01-18T01:06:24.003Z,997.68
2018-01-18T01:07:23.975Z,997.40
2018-01-18T01:08:23.936Z,997.37
2018-01-18T01:09:23.905Z,997.43
2018-01-18T01:10:23.880Z,997.46
2018-01-18T01:11:23.844Z,997.20
2018-01-18T01:12:23.803Z,997.33
2018-01-18T01:13:23.783Z,997.24
2018-01-18T01:14:23.742Z,997.35
2018-01-18T01:15:23.714Z,997.38
2018-01-18T01:16:23.680Z,997.30
2018-01-18T01:17:23.644Z,997.37
2018-01-18T01:18:23.616Z,997.34
2018-01-18T01:19:23.575Z,997.38
2018-01-18T01:20:23.543Z,997.38
2018-01-18T01:21:23.509Z,997.29
2018-01-18T01:22:23.484Z,997.30
2018-01-18T01:23:23.445Z,997.33
2018-01-18T01:24:23.419Z,997.35
2018-01-18T01:25:23.391Z,997.15
2018-01-18T01:26:23.344Z,997.23
2018-01-18T01:27:23.331Z,997.24
2018-01-18T01:28:23.281Z,997.25
2018-01-18T01:29:23.249Z,997.13
2018-01-18T01:30:23.222Z,997.20
2018-01-18T01:31:23.181Z,997.04
2018-01-18T01:32:23.151Z,997.13
2018-01-18T01:33:23.113Z,997.07
2018-01-18T01:34:23.082Z,997.04
2018-01-18T01:35:23.054Z,997.08
2018-01-18T01:36:23.023Z,997.02
2018-01-18T01:37:22.989Z,997.03
2018-01-18T01:38:22.950Z,997.04
2018-01-18T01:39:22.919Z,997.06
2018-01-18T01:40:23.191Z,996.98
2018-01-18T01:41:22.854Z,996.99
2018-01-18T01:42:22.831Z,997.05
2018-01-18T01:43:22.796Z,997.07
2018-01-18T01:44:22.767Z,996.98
2018-01-18T01:45:22.735Z,996.98
2018-01-18T01:46:22.691Z,996.94
2018-01-18T01:47:22.661Z,996.97
2018-01-18T01:48:22.629Z,997.04
2018-01-18T01:49:22.605Z,996.85
2018-01-18T01:50:22.563Z,996.94
2018-01-18T01:51:22.528Z,996.87
2018-01-18T01:52:22.497Z,996.96
2018-01-18T01:53:22.461Z,996.97
2018-01-18T01:54:22.434Z,996.96
2018-01-18T01:55:22.402Z,997.01
2018-01-18T01:56:22.364Z,996.97
2018-01-18T01:57:22.340Z,996.93
2018-01-18T01:58:22.303Z,996.93
2018-01-18T01:59:22.267Z,996.75
2018-01-18T02:00:22.240Z,996.89
2018-01-18T02:01:22.198Z,996.97
2018-01-18T02:02:22.168Z,996.90
2018-01-18T02:03:22.147Z,996.84
2018-01-18T02:04:22.146Z,996.80
2018-01-18T02:05:22.081Z,996.74
2018-01-18T02:06:22.041Z,996.79
2018-01-18T02:07:22.013Z,996.70
2018-01-18T02:08:21.973Z,996.60
2018-01-18T02:09:21.937Z,996.66
2018-01-18T02:10:21.905Z,996.81
2018-01-18T02:11:21.875Z,996.61
2018-01-18T02:12:21.840Z,996.74
2018-01-18T02:13:21.815Z,996.51
2018-01-18T02:14:21.774Z,996.66
2018-01-18T02:15:22.047Z,996.59
2018-01-18T02:16:21.714Z,996.51
2018-01-18T02:17:21.679Z,996.59
2018-01-18T02:18:21.647Z,996.41
2018-01-18T02:19:21.623Z,996.58
2018-01-18T02:20:21.581Z,996.50
2018-01-18T02:21:21.548Z,996.63
2018-01-18T02:22:21.520Z,996.52
2018-01-18T02:23:21.495Z,996.50
2018-01-18T02:24:21.454Z,996.50
2018-01-18T02:25:21.431Z,996.40
2018-01-18T02:26:21.393Z,996.39
2018-01-18T02:27:21.367Z,996.37
2018-01-18T02:28:21.336Z,996.46
2018-01-18T02:29:21.293Z,996.48
2018-01-18T02:30:21.265Z,996.25
2018-01-18T02:31:21.233Z,996.31
2018-01-18T02:32:21.199Z,996.35
2018-01-18T02:33:21.163Z,996.29
2018-01-18T02:34:21.128Z,996.27
2018-01-18T02:35:21.129Z,996.29
2018-01-18T02:36:21.063Z,996.37
2018-01-18T02:37:21.042Z,996.24
2018-01-18T02:38:21.010Z,996.20
2018-01-18T02:39:20.972Z,996.13
2018-01-18T02:40:20.943Z,995.98
2018-01-18T02:41:20.909Z,996.30
2018-01-18T02:42:20.880Z,996.17
2018-01-18T02:43:20.838Z,996.16
2018-01-18T02:44:21.109Z,996.00
2018-01-18T02:45:20.778Z,996.22
2018-01-18T02:46:20.740Z,996.08
2018-01-18T02:47:20.725Z,995.94
2018-01-18T02:48:20.675Z,996.05
2018-01-18T02:49:20.641Z,996.07
2018-01-18T02:50:20.614Z,996.17
2018-01-18T02:51:20.576Z,995.95
2018-01-18T02:52:20.547Z,996.01
2018-01-18T02:53:20.518Z,996.02
2018-01-18T02:54:20.482Z,996.10
2018-01-18T02:55:20.459Z,996.09
2018-01-18T02:56:20.427Z,995.98
2018-01-18T02:57:20.392Z,996.03
2018-01-18T02:58:20.361Z,995.86
2018-01-18T02:59:20.320Z,995.92
2018-01-18T03:00:20.294Z,996.02
2018-01-18T03:01:20.260Z,995.83
2018-01-18T03:02:20.484Z,995.87
2018-01-18T03:03:20.200Z,995.84
2018-01-18T03:04:20.161Z,995.71
2018-01-18T03:05:20.130Z,995.70
2018-01-18T03:06:20.092Z,995.81
2018-01-18T03:07:20.062Z,995.91
2018-01-18T03:08:20.543Z,995.87
2018-01-18T03:09:20.006Z,995.38
2018-01-18T03:10:19.969Z,995.44
2018-01-18T03:11:19.942Z,995.62
2018-01-18T03:12:19.913Z,995.70
2018-01-18T03:13:19.867Z,995.30
2018-01-18T03:14:19.839Z,995.35
2018-01-18T03:15:19.810Z,995.61
2018-01-18T03:16:19.784Z,995.15
2018-01-18T03:17:19.751Z,995.33
2018-01-18T03:18:19.714Z,995.65
2018-01-18T03:19:19.675Z,995.65
2018-01-18T03:20:19.942Z,995.46
2018-01-18T03:21:19.616Z,995.41
2018-01-18T03:22:19.584Z,995.22
2018-01-18T03:23:19.548Z,995.40
2018-01-18T03:24:19.513Z,995.28
2018-01-18T03:25:19.489Z,995.21
2018-01-18T03:26:19.455Z,994.96
2018-01-18T03:27:19.432Z,995.28
2018-01-18T03:28:19.384Z,995.28
2018-01-18T03:29:19.358Z,995.09
2018-01-18T03:30:19.327Z,995.06
2018-01-18T03:31:19.294Z,994.57
2018-01-18T03:32:19.514Z,994.57
2018-01-18T03:33:19.228Z,994.94
2018-01-18T03:34:19.191Z,994.88
2018-01-18T03:35:19.172Z,994.62
2018-01-18T03:36:19.134Z,994.78
2018-01-18T03:37:19.106Z,995.08
2018-01-18T03:38:19.068Z,994.63
2018-01-18T03:39:19.032Z,995.09
2018-01-18T03:40:19.024Z,994.95
2018-01-18T03:41:18.979Z,994.64
2018-01-18T03:42:18.942Z,994.98
2018-01-18T03:43:18.903Z,994.92
2018-01-18T03:44:18.874Z,994.95
2018-01-18T03:45:18.848Z,994.84
2018-01-18T03:46:18.810Z,995.03
2018-01-18T03:47:18.774Z,995.04
2018-01-18T03:48:18.752Z,994.82
2018-01-18T03:49:18.709Z,994.97
2018-01-18T03:50:18.678Z,994.63
2018-01-18T03:51:18.657Z,994.58
2018-01-18T03:52:18.614Z,994.61
2018-01-18T03:53:18.583Z,994.85
2018-01-18T03:54:18.595Z,994.76
2018-01-18T03:55:18.825Z,994.71
2018-01-18T03:56:18.505Z,994.87
2018-01-18T03:57:18.463Z,994.68
2018-01-18T03:58:18.423Z,994.78
2018-01-18T03:59:18.396Z,994.53
2018-01-18T04:00:18.364Z,994.37
2018-01-18T04:01:18.339Z,994.57
2018-01-18T04:02:18.300Z,994.54
2018-01-18T04:03:18.262Z,994.25
2018-01-18T04:04:18.244Z,994.67
2018-01-18T04:05:18.206Z,994.41
2018-01-18T04:06:18.477Z,994.12
2018-01-18T04:07:18.144Z,994.66
2018-01-18T04:08:18.107Z,994.60
2018-01-18T04:09:18.072Z,994.08
2018-01-18T04:10:18.042Z,994.53
2018-01-18T04:11:18.010Z,994.31
2018-01-18T04:12:17.990Z,994.74
2018-01-18T04:13:17.949Z,994.57
2018-01-18T04:14:17.918Z,994.44
2018-01-18T04:15:17.893Z,994.32
2018-01-18T04:16:17.847Z,994.11
2018-01-18T04:17:17.823Z,994.14
2018-01-18T04:18:17.784Z,994.39
2018-01-18T04:19:17.752Z,994.38
2018-01-18T04:20:17.720Z,993.86
2018-01-18T04:21:17.701Z,993.98
2018-01-18T04:22:17.666Z,993.97
2018-01-18T04:23:17.630Z,994.15
2018-01-18T04:24:17.597Z,993.83
2018-01-18T04:25:17.562Z,993.99
2018-01-18T04:26:17.528Z,993.90
2018-01-18T04:27:17.504Z,993.85
2018-01-18T04:28:17.471Z,993.66
2018-01-18T04:29:17.434Z,993.95
2018-01-18T04:30:17.400Z,993.89
2018-01-18T04:31:17.378Z,993.84
2018-01-18T04:32:17.348Z,993.88
2018-01-18T04:33:17.317Z,993.85
2018-01-18T04:34:17.281Z,993.60
2018-01-18T04:35:17.242Z,993.56
2018-01-18T04:36:17.469Z,993.45
2018-01-18T04:37:17.175Z,993.57
2018-01-18T04:38:17.148Z,993.40
2018-01-18T04:39:17.112Z,993.44
2018-01-18T04:40:17.082Z,993.42
2018-01-18T04:41:17.054Z,993.51
2018-01-18T04:42:17.367Z,993.53
2018-01-18T04:43:16.989Z,993.48
2018-01-18T04:44:16.966Z,993.37
2018-01-18T04:45:16.926Z,993.35
2018-01-18T04:46:16.898Z,993.37
2018-01-18T04:47:16.857Z,993.33
2018-01-18T04:48:16.826Z,993.32
2018-01-18T04:49:16.793Z,993.20
2018-01-18T04:50:16.765Z,993.17
2018-01-18T04:51:16.730Z,993.23
2018-01-18T04:52:16.706Z,993.11
2018-01-18T04:53:16.667Z,993.19
2018-01-18T04:54:16.637Z,993.08
2018-01-18T04:55:16.606Z,993.03
2018-01-18T04:56:16.571Z,992.92
2018-01-18T04:57:16.548Z,993.05
2018-01-18T04:58:16.506Z,992.85
2018-01-18T04:59:16.474Z,992.92
2018-01-18T05:00:16.450Z,992.92
2018-01-18T05:01:16.417Z,992.79
2018-01-18T05:02:16.384Z,992.79
2018-01-18T05:03:16.354Z,992.93
2018-01-18T05:04:16.319Z,992.81
2018-01-18T05:05:16.284Z,992.91
2018-01-18T05:06:16.559Z,992.74
2018-01-18T05:07:16.220Z,992.76
2018-01-18T05:08:16.200Z,992.69
2018-01-18T05:09:16.157Z,992.69
2018-01-18T05:10:16.132Z,992.77
2018-01-18T05:11:16.094Z,992.74
2018-01-18T05:12:16.068Z,992.67
2018-01-18T05:13:16.034Z,992.61
2018-01-18T05:14:16.002Z,992.57
2018-01-18T05:15:15.969Z,992.54
2018-01-18T05:16:15.934Z,992.45
2018-01-18T05:17:15.903Z,992.45
2018-01-18T05:18:15.880Z,992.33
2018-01-18T05:19:15.845Z,992.39
2018-01-18T05:20:15.810Z,992.38
2018-01-18T05:21:15.781Z,992.31
2018-01-18T05:22:15.748Z,992.36
2018-01-18T05:23:15.723Z,992.27
2018-01-18T05:24:15.678Z,992.30
2018-01-18T05:25:15.649Z,992.16
2018-01-18T05:26:15.615Z,992.12
2018-01-18T05:27:15.582Z,992.14
2018-01-18T05:28:15.557Z,992.11
2018-01-18T05:29:15.520Z,992.07
2018-01-18T05:30:15.494Z,992.09
2018-01-18T05:31:15.466Z,992.07
2018-01-18T05:32:15.424Z,992.00
2018-01-18T05:33:15.393Z,992.03
2018-01-18T05:34:15.360Z,991.91
2018-01-18T05:35:15.342Z,992.03
2018-01-18T05:36:15.305Z,991.88
2018-01-18T05:37:15.282Z,991.91
2018-01-18T05:38:15.238Z,991.86
2018-01-18T05:39:15.214Z,991.83
2018-01-18T05:40:15.177Z,991.65
2018-01-18T05:41:15.442Z,991.62
2018-01-18T05:42:15.109Z,991.69
2018-01-18T05:43:15.083Z,991.67
2018-01-18T05:44:15.058Z,991.16
2018-01-18T05:45:15.018Z,991.56
2018-01-18T05:46:14.985Z,991.51
2018-01-18T05:47:14.962Z,991.45
2018-01-18T05:48:14.973Z,991.30
2018-01-18T05:49:14.884Z,991.40
2018-01-18T05:50:14.863Z,991.40
2018-01-18T05:51:14.832Z,991.38
2018-01-18T05:52:14.789Z,991.38
2018-01-18T05:53:14.765Z,991.43
2018-01-18T05:54:14.725Z,991.33
2018-01-18T05:55:14.701Z,991.29
2018-01-18T05:56:14.671Z,991.21
2018-01-18T05:57:14.636Z,991.11
2018-01-18T05:58:14.608Z,991.07
2018-01-18T05:59:14.574Z,991.02
2018-01-18T06:00:14.542Z,991.09
2018-01-18T06:01:14.510Z,990.95
2018-01-18T06:02:14.476Z,990.94
2018-01-18T06:03:14.450Z,990.83
2018-01-18T06:04:14.407Z,990.81
2018-01-18T06:05:14.381Z,990.87
2018-01-18T06:06:14.349Z,990.83
2018-01-18T06:07:14.318Z,990.77
2018-01-18T06:08:14.284Z,990.70
2018-01-18T06:09:14.251Z,990.73
2018-01-18T06:10:14.222Z,990.74
2018-01-18T06:11:14.198Z,990.63
2018-01-18T06:12:14.163Z,990.58
2018-01-18T06:13:14.142Z,990.51
2018-01-18T06:14:14.090Z,990.52
2018-01-18T06:15:14.068Z,990.49
2018-01-18T06:16:14.330Z,990.39
2018-01-18T06:17:13.993Z,990.36
2018-01-18T06:18:13.970Z,990.15
2018-01-18T06:19:13.934Z,990.21
2018-01-18T06:20:13.898Z,990.09
2018-01-18T06:21:13.874Z,990.22
2018-01-18T06:22:13.834Z,990.11
2018-01-18T06:23:13.811Z,990.10
2018-01-18T06:24:13.779Z,990.08
2018-01-18T06:25:13.739Z,989.99
2018-01-18T06:26:13.713Z,990.09
2018-01-18T06:27:13.681Z,989.97
2018-01-18T06:28:13.645Z,989.84
2018-01-18T06:29:13.617Z,989.89
2018-01-18T06:30:13.583Z,989.90
2018-01-18T06:31:13.555Z,989.77
2018-01-18T06:32:13.522Z,989.66
2018-01-18T06:33:13.487Z,989.73
2018-01-18T06:34:13.451Z,989.68
2018-01-18T06:35:13.422Z,989.66
2018-01-18T06:36:13.391Z,989.53
2018-01-18T06:37:13.362Z,989.33
2018-01-18T06:38:13.333Z,989.53
2018-01-18T06:39:13.543Z,989.51
2018-01-18T06:40:13.262Z,989.53
2018-01-18T06:41:13.227Z,989.46
2018-01-18T06:42:13.200Z,989.38
2018-01-18T06:43:13.167Z,989.39
2018-01-18T06:44:13.133Z,989.31
2018-01-18T06:45:13.100Z,989.20
2018-01-18T06:46:13.074Z,989.28
2018-01-18T06:47:13.040Z,989.27
2018-01-18T06:48:13.015Z,989.20
2018-01-18T06:49:12.971Z,989.14
2018-01-18T06:50:12.950Z,989.06
2018-01-18T06:51:12.912Z,989.10
2018-01-18T06:52:12.889Z,989.02
2018-01-18T06:53:12.856Z,989.03
2018-01-18T06:54:12.817Z,988.97
2018-01-18T06:55:12.782Z,988.95
2018-01-18T06:56:12.747Z,988.76
2018-01-18T06:57:12.715Z,988.79
2018-01-18T06:58:12.689Z,988.75
2018-01-18T06:59:12.652Z,988.75
2018-01-18T07:00:12.624Z,988.69
2018-01-18T07:01:12.592Z,988.59
2018-01-18T07:02:12.557Z,988.53
2018-01-18T07:03:12.520Z,988.35
2018-01-18T07:04:12.491Z,988.38
2018-01-18T07:05:12.459Z,988.41
2018-01-18T07:06:12.433Z,988.20
2018-01-18T07:07:12.398Z,988.25
2018-01-18T07:08:12.373Z,988.10
2018-01-18T07:09:12.341Z,988.10
2018-01-18T07:10:12.302Z,988.07
2018-01-18T07:11:12.263Z,988.06
2018-01-18T07:12:12.242Z,987.96
2018-01-18T07:13:12.197Z,987.93
2018-01-18T07:14:12.182Z,987.80
2018-01-18T07:15:12.136Z,987.70
2018-01-18T07:16:12.114Z,987.65
2018-01-18T07:17:12.073Z,987.64
2018-01-18T07:18:12.045Z,987.54
2018-01-18T07:19:12.008Z,987.55
2018-01-18T07:20:11.982Z,987.37
2018-01-18T07:21:11.948Z,987.38
2018-01-18T07:22:11.908Z,987.25
2018-01-18T07:23:11.879Z,987.04
2018-01-18T07:24:11.846Z,986.98
2018-01-18T07:25:11.809Z,986.98
2018-01-18T07:26:11.784Z,987.07
2018-01-18T07:27:11.757Z,986.87
2018-01-18T07:28:11.726Z,986.96
2018-01-18T07:29:11.688Z,986.96
2018-01-18T07:30:11.647Z,986.87
2018-01-18T07:31:11.661Z,986.88
2018-01-18T07:32:11.596Z,986.78
2018-01-18T07:33:11.565Z,986.76
2018-01-18T07:34:11.528Z,986.64
2018-01-18T07:35:11.498Z,986.69
2018-01-18T07:36:11.455Z,986.48
2018-01-18T07:37:11.425Z,986.51
2018-01-18T07:38:11.386Z,986.22
2018-01-18T07:39:11.355Z,986.41
2018-01-18T07:40:11.340Z,986.40
2018-01-18T07:41:11.288Z,986.22
2018-01-18T07:42:11.258Z,986.14
2018-01-18T07:43:11.234Z,986.15
2018-01-18T07:44:11.201Z,986.22
2018-01-18T07:45:11.158Z,986.16
2018-01-18T07:46:11.129Z,986.19
2018-01-18T07:47:11.093Z,986.12
2018-01-18T07:48:11.062Z,986.09
2018-01-18T07:49:11.027Z,986.03
2018-01-18T07:50:10.993Z,986.01
2018-01-18T07:51:10.974Z,986.01
2018-01-18T07:52:10.938Z,985.93
2018-01-18T07:53:10.895Z,985.88
2018-01-18T07:54:10.865Z,985.77
2018-01-18T07:55:11.193Z,985.77
2018-01-18T07:56:10.805Z,985.82
2018-01-18T07:57:10.765Z,985.73
2018-01-18T07:58:10.731Z,985.59
2018-01-18T07:59:10.705Z,985.45
2018-01-18T08:00:10.669Z,985.60
2018-01-18T08:01:10.733Z,985.59
2018-01-18T08:02:10.598Z,985.50
2018-01-18T08:03:10.570Z,985.43
2018-01-18T08:04:10.537Z,985.46
2018-01-18T08:05:10.507Z,985.38
2018-01-18T08:06:10.478Z,985.29
2018-01-18T08:07:10.440Z,985.03
2018-01-18T08:08:10.401Z,985.25
2018-01-18T08:09:10.370Z,985.13
2018-01-18T08:10:10.340Z,985.18
2018-01-18T08:11:10.302Z,984.90
2018-01-18T08:12:10.276Z,984.88
2018-01-18T08:13:10.244Z,985.00
2018-01-18T08:14:10.205Z,984.97
2018-01-18T08:15:10.175Z,984.85
2018-01-18T08:16:10.137Z,984.75
2018-01-18T08:17:10.107Z,984.81
2018-01-18T08:18:10.074Z,984.67
2018-01-18T08:19:10.043Z,984.60
2018-01-18T08:20:10.010Z,984.56
2018-01-18T08:21:09.981Z,984.57
2018-01-18T08:22:09.949Z,984.29
2018-01-18T08:23:09.913Z,984.30
2018-01-18T08:24:09.871Z,984.25
2018-01-18T08:25:09.844Z,984.23
2018-01-18T08:26:09.808Z,984.13
2018-01-18T08:27:09.778Z,983.84
2018-01-18T08:28:09.749Z,983.82
2018-01-18T08:29:09.704Z,983.61
2018-01-18T08:30:09.674Z,983.74
2018-01-18T08:31:09.638Z,983.69
2018-01-18T08:32:09.610Z,983.46
2018-01-18T08:33:09.588Z,983.64
2018-01-18T08:34:09.545Z,983.46
2018-01-18T08:35:09.503Z,983.56
2018-01-18T08:36:09.471Z,983.45
2018-01-18T08:37:09.439Z,983.33
2018-01-18T08:38:09.407Z,983.31
2018-01-18T08:39:09.378Z,983.29
2018-01-18T08:40:09.338Z,983.14
2018-01-18T08:41:09.311Z,983.21
2018-01-18T08:42:09.623Z,982.89
2018-01-18T08:43:09.235Z,983.12
2018-01-18T08:44:09.222Z,983.03
2018-01-18T08:45:09.178Z,983.01
2018-01-18T08:46:09.134Z,982.93
2018-01-18T08:47:09.117Z,982.83
2018-01-18T08:48:09.074Z,982.50
2018-01-18T08:49:09.034Z,982.70
2018-01-18T08:50:09.011Z,982.70
2018-01-18T08:51:08.980Z,982.69
2018-01-18T08:52:08.939Z,982.57
2018-01-18T08:53:09.309Z,982.44
2018-01-18T08:54:08.868Z,982.38
2018-01-18T08:55:08.832Z,982.48
2018-01-18T08:56:08.806Z,982.35
2018-01-18T08:57:08.767Z,982.38
2018-01-18T08:58:08.737Z,982.24
2018-01-18T08:59:08.754Z,982.27
2018-01-18T09:00:08.669Z,982.18
2018-01-18T09:01:08.630Z,982.06
2018-01-18T09:02:08.600Z,982.19
2018-01-18T09:03:08.564Z,981.92
2018-01-18T09:04:08.539Z,981.91
2018-01-18T09:05:08.496Z,981.77
2018-01-18T09:06:08.465Z,981.60
2018-01-18T09:07:08.433Z,981.59
2018-01-18T09:08:08.408Z,981.52
2018-01-18T09:09:08.405Z,981.42
2018-01-18T09:10:08.338Z,981.28
2018-01-18T09:11:08.298Z,981.24
2018-01-18T09:12:08.268Z,981.20
2018-01-18T09:13:08.246Z,981.30
2018-01-18T09:14:08.223Z,981.14
2018-01-18T09:15:08.175Z,981.11
2018-01-18T09:16:08.129Z,981.12
2018-01-18T09:17:08.115Z,980.84
2018-01-18T09:18:08.062Z,980.95
2018-01-18T09:19:08.028Z,980.97
2018-01-18T09:20:08.006Z,980.91
2018-01-18T09:21:07.967Z,980.41
2018-01-18T09:22:07.953Z,980.64
2018-01-18T09:23:07.900Z,980.71
2018-01-18T09:24:07.865Z,980.65
2018-01-18T09:25:07.831Z,980.48
2018-01-18T09:26:07.800Z,980.44
2018-01-18T09:27:07.766Z,980.20
2018-01-18T09:28:07.736Z,980.63
2018-01-18T09:29:07.698Z,979.77
2018-01-18T09:30:07.660Z,980.40
2018-01-18T09:31:07.624Z,980.18
2018-01-18T09:32:07.606Z,980.29
2018-01-18T09:33:07.564Z,980.25
2018-01-18T09:34:07.524Z,980.13
2018-01-18T09:35:07.505Z,979.89
2018-01-18T09:36:07.472Z,980.14
2018-01-18T09:37:07.430Z,979.89
2018-01-18T09:38:07.424Z,980.03
2018-01-18T09:39:07.358Z,979.92
2018-01-18T09:40:07.323Z,979.99
2018-01-18T09:41:07.296Z,979.68
2018-01-18T09:42:07.263Z,979.91
2018-01-18T09:43:07.232Z,979.75
2018-01-18T09:44:07.200Z,979.77
2018-01-18T09:45:07.159Z,979.55
2018-01-18T09:46:07.130Z,979.56
2018-01-18T09:47:07.095Z,979.26
2018-01-18T09:48:07.061Z,979.30
2018-01-18T09:49:07.032Z,979.57
2018-01-18T09:50:07.000Z,978.48
2018-01-18T09:51:06.966Z,979.10
2018-01-18T09:52:06.923Z,979.28
2018-01-18T09:53:06.889Z,979.21
2018-01-18T09:54:06.863Z,979.23
2018-01-18T09:55:06.850Z,978.72
2018-01-18T09:56:06.795Z,978.92
2018-01-18T09:57:06.804Z,978.39
2018-01-18T09:58:06.870Z,979.09
2018-01-18T09:59:06.689Z,979.04
2018-01-18T10:00:06.661Z,978.94
2018-01-18T10:01:06.633Z,978.71
2018-01-18T10:02:06.587Z,978.78
2018-01-18T10:03:06.563Z,978.90
2018-01-18T10:04:06.530Z,978.72
2018-01-18T10:05:06.493Z,978.79
2018-01-18T10:06:06.493Z,978.71
2018-01-18T10:07:06.426Z,978.70
2018-01-18T10:08:06.399Z,978.67
2018-01-18T10:09:06.352Z,978.61
2018-01-18T10:10:06.320Z,978.61
2018-01-18T10:11:06.289Z,978.36
2018-01-18T10:12:06.264Z,978.45
2018-01-18T10:13:06.222Z,977.98
2018-01-18T10:14:06.192Z,978.09
2018-01-18T10:15:06.169Z,978.33
2018-01-18T10:16:06.169Z,978.10
2018-01-18T10:17:06.086Z,977.58
2018-01-18T10:18:06.075Z,978.26
2018-01-18T10:19:06.026Z,978.28
2018-01-18T10:20:05.986Z,978.04
2018-01-18T10:21:05.955Z,978.14
2018-01-18T10:22:05.921Z,978.14
2018-01-18T10:23:05.901Z,978.04
2018-01-18T10:24:05.861Z,977.74
2018-01-18T10:25:05.831Z,977.99
2018-01-18T10:26:05.794Z,978.02
2018-01-18T10:27:05.770Z,978.03
2018-01-18T10:28:05.726Z,977.99
2018-01-18T10:29:05.691Z,977.87
2018-01-18T10:30:05.650Z,977.89
2018-01-18T10:31:05.624Z,977.49
2018-01-18T10:32:05.596Z,977.56
2018-01-18T10:33:05.549Z,977.71
2018-01-18T10:34:05.525Z,977.76
2018-01-18T10:35:05.484Z,977.68
2018-01-18T10:36:05.461Z,977.53
2018-01-18T10:37:05.447Z,977.38
2018-01-18T10:38:05.384Z,977.35
2018-01-18T10:39:05.431Z,977.37
2018-01-18T10:40:05.327Z,977.30
2018-01-18T10:41:05.295Z,977.33
2018-01-18T10:42:05.248Z,976.96
2018-01-18T10:43:05.222Z,977.07
2018-01-18T10:44:05.186Z,976.98
2018-01-18T10:45:05.149Z,976.93
2018-01-18T10:46:05.128Z,976.84
2018-01-18T10:47:05.086Z,976.79
2018-01-18T10:48:05.047Z,976.80
2018-01-18T10:49:05.019Z,976.77
2018-01-18T10:50:04.983Z,976.86
2018-01-18T10:51:04.951Z,976.86
2018-01-18T10:52:04.923Z,977.11
2018-01-18T10:53:04.884Z,977.34
2018-01-18T10:54:04.855Z,977.31
2018-01-18T10:55:04.824Z,977.78
2018-01-18T10:56:04.791Z,977.36
2018-01-18T10:57:04.753Z,976.98
2018-01-18T10:58:04.725Z,976.83
2018-01-18T10:59:04.695Z,976.91
2018-01-18T11:00:04.658Z,976.49
2018-01-18T11:01:04.620Z,976.68
2018-01-18T11:02:04.586Z,976.61
2018-01-18T11:03:04.562Z,976.56
2018-01-18T11:04:04.551Z,976.65
2018-01-18T11:05:04.485Z,976.53
2018-01-18T11:06:04.453Z,976.57
2018-01-18T11:07:04.414Z,976.57
2018-01-18T11:08:04.388Z,976.57
2018-01-18T11:09:04.350Z,976.55
2018-01-18T11:10:04.313Z,976.51
2018-01-18T11:11:04.288Z,976.46
2018-01-18T11:12:04.252Z,976.45
2018-01-18T11:13:04.222Z,976.41
2018-01-18T11:14:04.490Z,976.40
2018-01-18T11:15:04.157Z,976.44
2018-01-18T11:16:04.124Z,976.41
2018-01-18T11:17:04.080Z,976.34
2018-01-18T11:18:04.057Z,976.33
2018-01-18T11:19:04.023Z,976.34
2018-01-18T11:20:03.988Z,976.24
2018-01-18T11:21:03.947Z,976.23
2018-01-18T11:22:03.922Z,976.21
2018-01-18T11:23:03.888Z,976.15
2018-01-18T11:24:03.849Z,976.17
2018-01-18T11:25:03.818Z,976.11
2018-01-18T11:26:03.781Z,976.11
2018-01-18T11:27:03.761Z,976.06
2018-01-18T11:28:03.723Z,975.99
2018-01-18T11:29:03.686Z,975.95
2018-01-18T11:30:03.684Z,975.95
2018-01-18T11:31:03.660Z,975.95
2018-01-18T11:32:03.591Z,975.89
2018-01-18T11:33:03.548Z,975.90
2018-01-18T11:34:03.516Z,975.81
2018-01-18T11:35:03.524Z,975.85
2018-01-18T11:36:03.460Z,975.84
2018-01-18T11:37:03.422Z,975.83
2018-01-18T11:38:03.390Z,975.86
2018-01-18T11:39:03.358Z,975.85
2018-01-18T11:40:03.327Z,975.85
2018-01-18T11:41:03.294Z,975.91
2018-01-18T11:42:03.257Z,975.87
2018-01-18T11:43:03.228Z,975.88
2018-01-18T11:44:03.206Z,975.78
2018-01-18T11:45:03.164Z,975.85
2018-01-18T11:46:03.120Z,975.88
2018-01-18T11:47:03.086Z,975.88
2018-01-18T11:48:03.056Z,975.85
2018-01-18T11:49:03.025Z,975.84
2018-01-18T11:50:02.988Z,975.84
2018-01-18T11:51:02.954Z,975.84
2018-01-18T11:52:02.922Z,975.80
2018-01-18T11:53:02.886Z,975.81
2018-01-18T11:54:02.854Z,975.78
2018-01-18T11:55:02.831Z,975.84
2018-01-18T11:56:02.798Z,975.85
2018-01-18T11:57:02.769Z,975.82
2018-01-18T11:58:02.723Z,975.87
2018-01-18T11:59:02.689Z,975.83
2018-01-18T12:00:02.659Z,975.79
2018-01-18T12:01:02.623Z,975.80
2018-01-18T12:02:02.597Z,975.80
2018-01-18T12:03:02.561Z,975.80
2018-01-18T12:04:02.525Z,975.82
2018-01-18T12:05:02.492Z,975.89
2018-01-18T12:06:02.493Z,975.86
2018-01-18T12:07:02.433Z,975.81
2018-01-18T12:08:02.399Z,975.76
2018-01-18T12:09:02.360Z,975.75
2018-01-18T12:10:02.326Z,975.74
2018-01-18T12:11:02.300Z,975.71
2018-01-18T12:12:02.282Z,975.69
2018-01-18T12:13:02.229Z,975.76
2018-01-18T12:14:02.198Z,975.75
2018-01-18T12:15:02.171Z,975.73
2018-01-18T12:16:02.130Z,975.85
2018-01-18T12:17:02.096Z,975.80
2018-01-18T12:18:02.090Z,975.74
2018-01-18T12:19:02.055Z,975.68
2018-01-18T12:20:02.018Z,975.70
2018-01-18T12:21:01.966Z,975.66
2018-01-18T12:22:01.956Z,975.64
2018-01-18T12:23:01.919Z,975.73
2018-01-18T12:24:01.890Z,975.79
2018-01-18T12:25:01.834Z,975.84
2018-01-18T12:26:01.815Z,975.85
2018-01-18T12:27:01.772Z,975.87
2018-01-18T12:28:01.746Z,975.90